createdAt,value
2017-09-13T03:30:47.874Z,2.05
2017-09-13T03:33:16.226Z,2.45
2017-09-13T03:35:43.803Z,2.15
2017-09-13T03:38:11.430Z,3.17
2017-09-13T03:40:39.009Z,2.20
2017-09-13T03:43:06.585Z,2.05
2017-09-13T03:45:34.978Z,1.95
2017-09-13T03:48:03.320Z,1.85
2017-09-13T03:50:30.896Z,2.30
2017-09-13T03:52:59.280Z,1.90
2017-09-13T03:55:27.625Z,2.65
2017-09-13T03:57:55.969Z,2.30
2017-09-13T04:00:23.569Z,2.97
2017-09-13T04:02:51.149Z,2.42
2017-09-13T04:05:19.730Z,1.80
2017-09-13T04:07:48.078Z,2.00
2017-09-13T04:10:16.422Z,2.15
2017-09-13T04:12:44.253Z,2.15
2017-09-13T04:15:12.593Z,2.03
2017-09-13T04:17:40.165Z,1.95
2017-09-13T04:20:07.786Z,2.03
2017-09-13T04:22:35.378Z,1.90
2017-09-13T04:25:02.954Z,1.85
2017-09-13T04:27:30.593Z,1.87
2017-09-13T04:29:58.174Z,1.70
2017-09-13T04:32:25.762Z,1.98
2017-09-13T04:34:53.389Z,1.60
2017-09-13T04:37:20.969Z,2.42
2017-09-13T04:39:49.316Z,2.10
2017-09-13T04:42:17.090Z,2.60
2017-09-13T04:44:44.669Z,2.42
2017-09-13T04:47:12.257Z,2.00
2017-09-13T04:49:39.882Z,2.70
2017-09-13T04:52:08.226Z,1.73
2017-09-13T04:54:35.800Z,1.65
2017-09-13T04:57:03.418Z,1.83
2017-09-13T04:59:31.006Z,1.45
2017-09-13T05:01:58.581Z,2.17
2017-09-13T05:04:27.174Z,1.77
2017-09-13T05:06:55.518Z,1.60
2017-09-13T05:09:23.102Z,1.92
2017-09-13T05:11:51.489Z,2.37
2017-09-13T05:14:19.838Z,1.60
2017-09-13T05:16:47.424Z,1.70
2017-09-13T05:19:15.818Z,1.60
2017-09-13T05:21:43.402Z,1.98
2017-09-13T05:24:10.981Z,1.90
2017-09-13T05:26:39.382Z,2.28
2017-09-13T05:29:07.729Z,2.58
2017-09-13T05:31:35.309Z,1.75
2017-09-13T05:34:03.018Z,2.30
2017-09-13T05:36:30.601Z,1.52
2017-09-13T05:38:58.186Z,1.50
2017-09-13T05:41:26.069Z,2.08
2017-09-13T05:43:54.417Z,2.10
2017-09-13T05:46:22.005Z,1.75
2017-09-13T05:48:50.417Z,1.80
2017-09-13T05:51:17.992Z,1.80
2017-09-13T05:53:45.572Z,1.80
2017-09-13T05:56:13.195Z,1.80
2017-09-13T05:58:40.779Z,2.50
2017-09-13T06:01:08.361Z,2.70
2017-09-13T06:03:35.974Z,2.40
2017-09-13T06:06:03.559Z,1.85
2017-09-13T06:08:31.190Z,1.60
2017-09-13T06:10:58.769Z,2.83
2017-09-13T06:13:26.351Z,1.92
2017-09-13T06:15:53.970Z,1.58
2017-09-13T06:18:21.549Z,1.85
2017-09-13T06:20:49.133Z,1.95
2017-09-13T06:23:16.733Z,2.10
2017-09-13T06:25:44.315Z,2.62
2017-09-13T06:28:11.975Z,2.10
2017-09-13T06:30:40.337Z,2.20
2017-09-13T06:33:07.914Z,2.08
2017-09-13T06:35:35.529Z,1.95
2017-09-13T06:38:03.878Z,2.10
2017-09-13T06:40:31.486Z,1.92
2017-09-13T06:42:59.130Z,1.98
2017-09-13T06:45:26.713Z,2.05
2017-09-13T06:47:54.294Z,2.33
2017-09-13T06:50:21.930Z,1.60
2017-09-13T06:52:49.513Z,1.55
2017-09-13T06:55:17.094Z,1.40
2017-09-13T06:57:44.874Z,1.60
2017-09-13T07:00:13.230Z,1.95
2017-09-13T07:02:40.822Z,1.87
2017-09-13T07:05:08.441Z,1.45
2017-09-13T07:07:36.029Z,1.65
2017-09-13T07:10:04.394Z,1.60
2017-09-13T07:12:32.782Z,1.80
2017-09-13T07:15:01.134Z,1.65
2017-09-13T07:17:28.722Z,1.65
2017-09-13T07:19:57.126Z,1.85
2017-09-13T07:22:24.709Z,2.20
2017-09-13T07:24:52.297Z,1.58
2017-09-13T07:27:19.913Z,1.77
2017-09-13T07:29:47.504Z,1.85
2017-09-13T07:32:15.142Z,1.80
2017-09-13T07:34:42.735Z,1.40
2017-09-13T07:37:10.322Z,1.90
2017-09-13T07:39:37.946Z,1.90
2017-09-13T07:42:05.534Z,1.85
2017-09-13T07:44:33.123Z,1.40
2017-09-13T07:47:00.761Z,1.33
2017-09-13T07:49:28.345Z,1.55
2017-09-13T07:51:55.940Z,1.60
2017-09-13T07:54:23.546Z,1.35
2017-09-13T07:56:51.133Z,1.48
2017-09-13T07:59:18.753Z,1.30
2017-09-13T08:01:46.353Z,1.67
2017-09-13T08:04:13.986Z,1.30
2017-09-13T08:06:41.640Z,1.67
2017-09-13T08:09:09.235Z,1.60
2017-09-13T08:11:36.822Z,1.60
2017-09-13T08:14:04.446Z,1.60
2017-09-13T08:16:32.040Z,1.42
2017-09-13T08:18:59.625Z,1.80
2017-09-13T08:21:27.266Z,1.08
2017-09-13T08:23:54.849Z,1.00
2017-09-13T08:26:22.434Z,1.25
2017-09-13T08:28:50.054Z,1.40
2017-09-13T08:31:17.649Z,1.20
2017-09-13T08:33:45.469Z,1.48
2017-09-13T08:36:13.822Z,1.15
2017-09-13T08:38:41.410Z,1.10
2017-09-13T08:41:09.806Z,1.08
2017-09-13T08:43:37.398Z,1.12
2017-09-13T08:46:04.982Z,1.00
2017-09-13T08:48:32.749Z,1.65
2017-09-13T08:51:00.342Z,1.20
2017-09-13T08:53:27.925Z,1.30
2017-09-13T08:55:55.565Z,1.40
2017-09-13T08:58:23.158Z,1.30
2017-09-13T09:00:50.743Z,1.42
2017-09-13T09:03:18.528Z,1.17
2017-09-13T09:05:46.909Z,1.40
2017-09-13T09:08:14.497Z,1.17
2017-09-13T09:10:42.110Z,1.70
2017-09-13T09:13:10.464Z,1.25
2017-09-13T09:15:38.857Z,1.47
2017-09-13T09:18:06.442Z,1.10
2017-09-13T09:20:34.798Z,0.87
2017-09-13T09:23:03.405Z,1.10
2017-09-13T09:25:30.986Z,1.00
2017-09-13T09:27:58.565Z,1.30
2017-09-13T09:30:26.181Z,1.35
2017-09-13T09:32:53.806Z,1.40
2017-09-13T09:35:21.593Z,1.27
2017-09-13T09:37:49.949Z,1.05
2017-09-13T09:40:17.543Z,0.90
2017-09-13T09:42:45.394Z,0.90
2017-09-13T09:45:13.750Z,1.03
2017-09-13T09:47:41.353Z,0.98
2017-09-13T09:50:08.963Z,1.00
2017-09-13T09:52:36.552Z,1.53
2017-09-13T09:55:04.952Z,1.07
2017-09-13T09:57:32.529Z,1.07
2017-09-13T10:00:00.114Z,1.47
2017-09-13T10:02:27.977Z,1.35
2017-09-13T10:04:57.511Z,1.03
2017-09-13T10:07:25.222Z,1.33
2017-09-13T10:09:52.869Z,1.03
2017-09-13T10:12:20.454Z,1.03
2017-09-13T10:14:48.043Z,1.13
2017-09-13T10:17:15.661Z,1.10
2017-09-13T10:19:43.253Z,0.77
2017-09-13T10:22:10.844Z,1.20
2017-09-13T10:24:38.486Z,1.20
2017-09-13T10:27:06.090Z,0.90
2017-09-13T10:29:33.673Z,1.53
2017-09-13T10:32:02.077Z,0.93
2017-09-13T10:34:30.426Z,1.10
2017-09-13T10:36:58.011Z,1.17
2017-09-13T10:39:26.602Z,0.80
2017-09-13T10:41:55.022Z,1.20
2017-09-13T10:44:22.597Z,0.97
2017-09-13T10:46:50.210Z,1.40
2017-09-13T10:49:17.798Z,1.10
2017-09-13T10:51:45.437Z,0.60
2017-09-13T10:54:13.017Z,1.10
2017-09-13T10:56:40.601Z,0.90
2017-09-13T10:59:08.216Z,1.10
2017-09-13T11:01:35.802Z,0.87
2017-09-13T11:04:03.387Z,1.27
2017-09-13T11:06:31.001Z,1.00
2017-09-13T11:08:58.582Z,0.90
2017-09-13T11:11:26.166Z,1.17
2017-09-13T11:13:53.769Z,1.20
2017-09-13T11:16:21.355Z,1.40
2017-09-13T11:18:48.977Z,0.73
2017-09-13T11:21:16.569Z,1.17
2017-09-13T11:23:44.158Z,0.97
2017-09-13T11:26:11.946Z,1.17
2017-09-13T11:28:40.294Z,1.00
2017-09-13T11:31:07.878Z,1.10
2017-09-13T11:33:36.262Z,0.80
2017-09-13T11:36:04.610Z,1.03
2017-09-13T11:38:32.259Z,1.07
2017-09-13T11:40:59.838Z,0.63
2017-09-13T11:43:27.485Z,1.10
2017-09-13T11:45:55.123Z,0.77
2017-09-13T11:48:22.709Z,0.70
2017-09-13T11:50:50.293Z,1.00
2017-09-13T11:53:18.668Z,0.80
2017-09-13T11:55:48.807Z,0.60
2017-09-13T11:58:16.658Z,0.87
2017-09-13T12:00:44.266Z,0.70
2017-09-13T12:03:11.867Z,1.10
2017-09-13T12:05:40.275Z,1.10
2017-09-13T12:08:07.854Z,0.70
2017-09-13T12:10:36.276Z,1.00
2017-09-13T12:13:04.687Z,0.90
2017-09-13T12:15:32.297Z,1.50
2017-09-13T12:18:01.478Z,0.90
2017-09-13T12:20:29.098Z,0.90
2017-09-13T12:22:57.397Z,0.90
2017-09-13T12:25:25.038Z,0.80
2017-09-13T12:27:52.621Z,1.03
2017-09-13T12:30:20.205Z,1.20
2017-09-13T12:32:48.677Z,0.70
2017-09-13T12:35:16.294Z,1.07
2017-09-13T12:37:43.882Z,1.07
2017-09-13T12:40:13.230Z,0.80
2017-09-13T12:42:40.830Z,0.97
2017-09-13T12:45:08.414Z,0.70
2017-09-13T12:47:36.039Z,0.87
2017-09-13T12:50:03.649Z,0.97
2017-09-13T12:52:31.252Z,0.90
2017-09-13T12:54:58.864Z,0.80
2017-09-13T12:57:26.445Z,0.93
2017-09-13T12:59:54.833Z,0.80
2017-09-13T13:02:22.438Z,0.90
2017-09-13T13:04:50.797Z,0.90
2017-09-13T13:07:18.414Z,1.00
2017-09-13T13:09:46.781Z,0.77
2017-09-13T13:12:14.365Z,1.00
2017-09-13T13:14:42.746Z,0.90
2017-09-13T13:17:10.330Z,0.87
2017-09-13T13:19:38.567Z,1.10
2017-09-13T13:22:07.105Z,1.00
2017-09-13T13:24:36.339Z,1.10
2017-09-13T13:27:05.606Z,0.83
2017-09-13T13:29:33.218Z,0.90
2017-09-13T13:32:00.821Z,0.97
2017-09-13T13:34:28.398Z,0.80
2017-09-13T13:36:56.024Z,0.87
2017-09-13T13:39:27.105Z,0.93
2017-09-13T13:41:54.685Z,1.17
2017-09-13T13:44:23.054Z,1.00
2017-09-13T13:46:51.402Z,1.00
2017-09-13T13:49:19.059Z,0.90
2017-09-13T13:51:46.641Z,0.60
2017-09-13T13:54:15.026Z,0.90
2017-09-13T13:56:43.418Z,1.20
2017-09-13T13:59:10.997Z,0.57
2017-09-13T14:01:38.581Z,0.90
2017-09-13T14:04:06.210Z,0.90
2017-09-13T14:06:33.798Z,1.13
2017-09-13T14:09:01.382Z,0.90
2017-09-13T14:11:29.001Z,0.90
2017-09-13T14:13:56.577Z,0.90
2017-09-13T14:16:24.159Z,0.70
2017-09-13T14:18:51.769Z,0.90
2017-09-13T14:21:19.366Z,0.80
2017-09-13T14:23:46.950Z,1.10
2017-09-13T14:26:15.334Z,1.40
2017-09-13T14:28:43.691Z,1.07
2017-09-13T14:31:11.278Z,0.80
2017-09-13T14:33:38.886Z,1.00
2017-09-13T14:36:06.468Z,1.10
2017-09-13T14:38:34.118Z,0.93
2017-09-13T14:41:01.703Z,1.03
2017-09-13T14:43:30.050Z,1.23
2017-09-13T14:45:57.681Z,1.00
2017-09-13T14:48:25.261Z,0.50
2017-09-13T14:50:52.850Z,0.90
2017-09-13T14:53:21.258Z,1.27
2017-09-13T14:55:48.840Z,1.50
2017-09-13T14:58:16.422Z,1.10
2017-09-13T15:00:44.043Z,1.00
2017-09-13T15:03:11.625Z,0.97
2017-09-13T15:05:39.210Z,1.60
2017-09-13T15:08:06.844Z,0.90
2017-09-13T15:10:34.422Z,1.33
2017-09-13T15:13:02.015Z,1.10
2017-09-13T15:15:29.626Z,1.17
2017-09-13T15:17:57.214Z,1.07
2017-09-13T15:20:24.851Z,1.10
2017-09-13T15:22:52.439Z,1.30
2017-09-13T15:25:20.789Z,1.30
2017-09-13T15:27:48.418Z,1.20
2017-09-13T15:30:16.014Z,1.10
2017-09-13T15:32:43.666Z,1.10
2017-09-13T15:35:11.318Z,1.00
2017-09-13T15:37:38.918Z,1.50
2017-09-13T15:40:07.500Z,1.60
2017-09-13T15:42:35.841Z,1.27
2017-09-13T15:45:03.444Z,1.30
2017-09-13T15:47:31.059Z,1.27
2017-09-13T15:49:58.657Z,1.30
2017-09-13T15:52:27.002Z,1.40
2017-09-13T15:54:54.790Z,1.10
2017-09-13T15:57:23.145Z,1.50
2017-09-13T15:59:50.726Z,1.00
2017-09-13T16:02:19.281Z,1.07
2017-09-13T16:04:46.870Z,1.00
2017-09-13T16:07:15.218Z,1.00
2017-09-13T16:09:42.829Z,1.27
2017-09-13T16:12:10.415Z,1.57
2017-09-13T16:14:38.038Z,1.33
2017-09-13T16:17:05.638Z,1.27
2017-09-13T16:19:33.217Z,1.10
2017-09-13T16:22:00.831Z,0.90
2017-09-13T16:24:28.413Z,1.20
2017-09-13T16:26:55.998Z,1.47
2017-09-13T16:29:23.610Z,1.30
2017-09-13T16:31:51.190Z,1.50
2017-09-13T16:34:18.767Z,1.80
2017-09-13T16:36:46.558Z,1.10
2017-09-13T16:39:14.930Z,1.10
2017-09-13T16:41:43.282Z,1.27
2017-09-13T16:44:10.905Z,1.50
2017-09-13T16:46:38.489Z,1.40
2017-09-13T16:49:06.162Z,1.33
2017-09-13T16:51:33.786Z,1.47
2017-09-13T16:54:02.182Z,1.90
2017-09-13T16:56:29.762Z,1.70
2017-09-13T16:58:57.382Z,1.60
2017-09-13T17:01:24.971Z,1.60
2017-09-13T17:03:52.630Z,1.60
2017-09-13T17:06:21.030Z,1.70
2017-09-13T17:08:48.626Z,1.50
2017-09-13T17:11:16.242Z,1.37
2017-09-13T17:13:43.821Z,1.60
2017-09-13T17:16:12.178Z,2.10
2017-09-13T17:18:39.785Z,1.60
2017-09-13T17:21:07.364Z,1.47
2017-09-13T17:23:34.957Z,1.20
2017-09-13T17:26:02.589Z,2.00
2017-09-13T17:28:30.171Z,1.60
2017-09-13T17:30:57.753Z,1.60
2017-09-13T17:33:26.127Z,1.90
2017-09-13T17:35:54.502Z,1.57
2017-09-13T17:38:22.855Z,1.60
2017-09-13T17:40:50.434Z,1.43
2017-09-13T17:43:18.819Z,1.70
2017-09-13T17:45:47.170Z,1.90
2017-09-13T17:48:14.746Z,1.67
2017-09-13T17:50:43.131Z,1.50
2017-09-13T17:53:11.477Z,1.87
2017-09-13T17:55:39.054Z,1.67
2017-09-13T17:58:06.654Z,1.80
2017-09-13T18:00:34.251Z,1.43
2017-09-13T18:03:01.878Z,1.33
2017-09-13T18:05:29.463Z,1.57
2017-09-13T18:07:57.048Z,1.60
2017-09-13T18:10:24.669Z,1.70
2017-09-13T18:12:52.249Z,1.80
2017-09-13T18:15:19.831Z,1.23
2017-09-13T18:17:48.245Z,1.33
2017-09-13T18:20:15.835Z,1.27
2017-09-13T18:22:43.426Z,1.50
2017-09-13T18:25:12.113Z,1.23
2017-09-13T18:27:40.466Z,1.60
2017-09-13T18:30:08.053Z,1.40
2017-09-13T18:32:36.432Z,1.37
2017-09-13T18:35:04.786Z,1.17
2017-09-13T18:37:32.396Z,1.50
2017-09-13T18:39:59.977Z,1.13
2017-09-13T18:42:27.561Z,1.40
2017-09-13T18:44:55.240Z,1.23
2017-09-13T18:47:24.527Z,1.53
2017-09-13T18:49:52.314Z,1.30
2017-09-13T18:52:20.661Z,2.20
2017-09-13T18:54:48.249Z,2.13
2017-09-13T18:57:16.826Z,2.63
2017-09-13T18:59:45.177Z,1.70
2017-09-13T19:02:12.778Z,2.30
2017-09-13T19:04:40.411Z,2.03
2017-09-13T19:07:08.774Z,1.20
2017-09-13T19:09:36.362Z,1.30
2017-09-13T19:12:05.135Z,1.20
2017-09-13T19:14:33.490Z,1.30
2017-09-13T19:17:01.078Z,1.20
2017-09-13T19:19:29.491Z,1.20
2017-09-13T19:21:57.076Z,1.27
2017-09-13T19:24:24.667Z,1.17
2017-09-13T19:26:53.046Z,1.37
2017-09-13T19:29:21.442Z,1.00
2017-09-13T19:31:49.037Z,1.60
2017-09-13T19:34:16.673Z,1.48
2017-09-13T19:36:44.260Z,1.25
2017-09-13T19:39:12.066Z,1.20
2017-09-13T19:41:40.422Z,1.30
2017-09-13T19:44:08.023Z,1.50
2017-09-13T19:46:35.657Z,1.00
2017-09-13T19:49:04.012Z,1.42
2017-09-13T19:51:31.603Z,1.33
2017-09-13T19:53:59.989Z,1.48
2017-09-13T19:56:27.573Z,1.15
2017-09-13T19:58:55.198Z,1.12
2017-09-13T20:01:23.562Z,1.33
2017-09-13T20:03:53.102Z,1.20
2017-09-13T20:06:21.574Z,1.30
2017-09-13T20:08:49.166Z,1.77
2017-09-13T20:11:16.758Z,1.58
2017-09-13T20:13:45.138Z,1.05
2017-09-13T20:16:13.497Z,0.90
2017-09-13T20:18:41.242Z,1.27
2017-09-13T20:21:08.827Z,1.65
2017-09-13T20:23:36.417Z,1.30
2017-09-13T20:26:05.009Z,1.20
2017-09-13T20:28:32.594Z,1.30
2017-09-13T20:31:00.182Z,1.08
2017-09-13T20:33:27.822Z,1.12
2017-09-13T20:35:55.409Z,1.05
2017-09-13T20:38:23.003Z,1.25
2017-09-13T20:40:50.855Z,1.15
2017-09-13T20:43:19.201Z,1.30
2017-09-13T20:45:46.782Z,1.23
2017-09-13T20:48:15.166Z,1.20
2017-09-13T20:50:43.525Z,1.30
2017-09-13T20:53:11.113Z,1.20
2017-09-13T20:55:38.733Z,1.62
2017-09-13T20:58:06.318Z,1.70
2017-09-13T21:00:34.673Z,1.35
2017-09-13T21:03:02.447Z,1.50
2017-09-13T21:05:30.025Z,1.55
2017-09-13T21:07:57.634Z,1.70
2017-09-13T21:10:25.412Z,1.62
2017-09-13T21:12:52.993Z,2.03
2017-09-13T21:15:21.349Z,2.20
2017-09-13T21:17:48.966Z,1.48
2017-09-13T21:20:16.554Z,1.37
2017-09-13T21:22:44.194Z,1.58
2017-09-13T21:25:11.782Z,1.60
2017-09-13T21:27:39.369Z,1.35
2017-09-13T21:30:07.749Z,1.30
2017-09-13T21:32:36.101Z,1.40
2017-09-13T21:35:03.685Z,1.58
2017-09-13T21:37:32.261Z,1.42
2017-09-13T21:40:00.622Z,1.45
2017-09-13T21:42:28.202Z,1.42
2017-09-13T21:44:56.605Z,1.50
2017-09-13T21:47:24.190Z,1.87
2017-09-13T21:49:51.779Z,1.60
2017-09-13T21:52:19.409Z,1.58
2017-09-13T21:54:47.757Z,1.48
2017-09-13T21:57:15.339Z,1.92
2017-09-13T21:59:42.965Z,1.35
2017-09-13T22:02:10.546Z,1.67
2017-09-13T22:04:38.130Z,2.17
2017-09-13T22:07:05.755Z,1.30
2017-09-13T22:09:33.338Z,1.65
2017-09-13T22:12:00.930Z,1.92
2017-09-13T22:14:28.705Z,1.75
2017-09-13T22:16:57.051Z,1.75
2017-09-13T22:19:24.629Z,1.65
2017-09-13T22:21:52.231Z,1.75
2017-09-13T22:24:19.809Z,1.60
2017-09-13T22:26:47.621Z,1.70
2017-09-13T22:29:16.056Z,1.55
